createdAt,value
2023-04-09T00:03:29.938Z,7.22
2023-04-09T00:08:33.947Z,7.21
2023-04-09T00:13:39.602Z,7.19
2023-04-09T00:18:43.790Z,7.18
2023-04-09T00:23:47.483Z,7.21
2023-04-09T00:28:51.503Z,7.22
2023-04-09T00:33:55.857Z,7.19
2023-04-09T00:39:03.158Z,7.17
2023-04-09T00:44:06.980Z,7.13
2023-04-09T00:49:10.775Z,7.11
2023-04-09T00:54:14.885Z,7.08
2023-04-09T00:59:18.838Z,7.06
2023-04-09T01:04:23.637Z,7.02
2023-04-09T01:09:42.773Z,7.02
2023-04-09T01:14:57.750Z,6.98
2023-04-09T01:20:10.765Z,6.97
2023-04-09T01:25:34.452Z,6.98
2023-04-09T01:30:40.267Z,6.96
2023-04-09T01:35:46.754Z,6.93
2023-04-09T01:40:51.310Z,6.88
2023-04-09T01:45:55.579Z,6.83
2023-04-09T01:50:59.892Z,6.78
2023-04-09T01:56:04.043Z,6.76
2023-04-09T02:01:07.774Z,6.71
2023-04-09T02:06:17.940Z,6.68
2023-04-09T02:11:24.303Z,6.62
2023-04-09T02:16:28.734Z,6.48
2023-04-09T02:21:32.617Z,6.38
2023-04-09T02:26:36.346Z,6.29
2023-04-09T02:31:40.037Z,6.23
2023-04-09T02:36:44.090Z,6.21
2023-04-09T02:41:48.132Z,6.24
2023-04-09T02:46:52.982Z,6.25
2023-04-09T02:51:56.984Z,6.23
2023-04-09T02:57:01.595Z,6.23
2023-04-09T03:02:05.535Z,6.27
2023-04-09T03:07:09.558Z,6.31
2023-04-09T03:12:13.417Z,6.33
2023-04-09T03:17:17.133Z,6.35
2023-04-09T03:22:20.960Z,6.40
2023-04-09T03:27:27.587Z,6.45
2023-04-09T03:32:32.185Z,6.48
2023-04-09T03:37:36.680Z,6.48
2023-04-09T03:42:43.221Z,6.48
2023-04-09T03:47:47.936Z,6.49
2023-04-09T03:52:53.477Z,6.50
2023-04-09T03:57:57.436Z,6.49
2023-04-09T04:03:04.646Z,6.49
2023-04-09T04:08:24.748Z,6.49
2023-04-09T04:13:28.655Z,6.48
2023-04-09T04:18:34.165Z,6.47
2023-04-09T04:23:38.192Z,6.47
2023-04-09T04:28:53.459Z,6.47
2023-04-09T04:34:22.344Z,6.48
2023-04-09T04:39:32.658Z,6.49
2023-04-09T04:44:40.712Z,6.49
2023-04-09T04:50:04.596Z,6.48
2023-04-09T04:55:13.094Z,6.47
2023-04-09T05:00:19.283Z,6.45
2023-04-09T05:05:24.184Z,6.44
2023-04-09T05:10:31.355Z,6.43
2023-04-09T05:15:41.580Z,6.44
2023-04-09T05:20:46.498Z,6.44
2023-04-09T05:25:50.952Z,6.46
2023-04-09T05:31:03.298Z,6.49
2023-04-09T05:36:09.337Z,6.53
2023-04-09T05:41:13.451Z,6.53
2023-04-09T05:46:25.644Z,6.52
2023-04-09T05:51:29.444Z,6.50
2023-04-09T05:56:33.937Z,6.49
2023-04-09T06:01:38.393Z,6.51
2023-04-09T06:06:42.269Z,6.51
2023-04-09T06:11:46.127Z,6.51
2023-04-09T06:16:49.907Z,6.48
2023-04-09T06:21:53.642Z,6.51
2023-04-09T06:26:57.355Z,6.52
2023-04-09T06:32:01.417Z,6.62
2023-04-09T06:37:05.377Z,6.68
2023-04-09T06:42:09.129Z,6.68
2023-04-09T06:47:35.987Z,6.64
2023-04-09T06:52:39.990Z,6.58
2023-04-09T06:57:43.738Z,6.52
2023-04-09T07:02:47.688Z,6.45
2023-04-09T07:07:51.968Z,6.42
2023-04-09T07:12:55.678Z,6.42
2023-04-09T07:17:59.946Z,6.42
2023-04-09T07:23:03.643Z,6.37
2023-04-09T07:28:07.354Z,6.36
2023-04-09T07:33:11.177Z,6.39
2023-04-09T07:38:15.286Z,6.44
2023-04-09T07:43:20.177Z,6.51
2023-04-09T07:48:25.134Z,6.58
2023-04-09T07:53:28.914Z,6.63
2023-04-09T07:58:32.623Z,6.67
2023-04-09T08:03:37.370Z,6.65
2023-04-09T08:08:42.136Z,6.60
2023-04-09T08:13:45.875Z,6.54
2023-04-09T08:18:51.372Z,6.49
2023-04-09T08:23:59.921Z,6.54
2023-04-09T08:29:04.132Z,6.57
2023-04-09T08:34:08.256Z,6.62
2023-04-09T08:39:12.436Z,6.60
2023-04-09T08:44:17.082Z,6.62
2023-04-09T08:49:21.643Z,6.70
2023-04-09T08:54:27.295Z,6.81
2023-04-09T08:59:31.306Z,6.90
2023-04-09T09:04:46.926Z,7.06
2023-04-09T09:10:03.852Z,7.25
2023-04-09T09:15:28.856Z,7.32
2023-04-09T09:20:32.840Z,7.36
2023-04-09T09:25:43.630Z,7.36
2023-04-09T09:30:49.194Z,7.35
2023-04-09T09:35:54.934Z,7.40
2023-04-09T09:40:59.495Z,7.48
2023-04-09T09:46:03.586Z,7.50
2023-04-09T09:51:13.160Z,7.45
2023-04-09T09:56:20.036Z,7.33
2023-04-09T10:01:25.139Z,7.24
2023-04-09T10:06:29.091Z,7.17
2023-04-09T10:11:34.558Z,7.13
2023-04-09T10:16:38.488Z,7.08
2023-04-09T10:21:46.255Z,7.05
2023-04-09T10:26:54.861Z,7.06
2023-04-09T10:32:06.728Z,7.13
2023-04-09T10:37:15.274Z,7.24
2023-04-09T10:42:27.580Z,7.35
2023-04-09T10:47:36.598Z,7.53
2023-04-09T10:52:42.157Z,7.71
2023-04-09T10:57:46.090Z,7.81
2023-04-09T11:03:07.126Z,7.77
2023-04-09T11:08:12.868Z,7.67
2023-04-09T11:13:18.763Z,7.60
2023-04-09T11:18:27.554Z,7.56
2023-04-09T11:23:32.602Z,7.54
2023-04-09T11:28:36.294Z,7.57
2023-04-09T11:33:40.048Z,7.63
2023-04-09T11:38:43.701Z,7.67
2023-04-09T11:43:47.453Z,7.70
2023-04-09T11:48:51.811Z,7.75
2023-04-09T11:53:55.976Z,7.77
2023-04-09T11:58:59.881Z,7.73
2023-04-09T12:04:03.966Z,7.69
2023-04-09T12:09:09.304Z,7.73
2023-04-09T12:14:17.488Z,7.86
2023-04-09T12:19:21.614Z,7.95
2023-04-09T12:24:26.755Z,7.99
2023-04-09T12:29:31.083Z,8.03
2023-04-09T12:34:34.768Z,8.14
2023-04-09T12:39:38.503Z,8.17
2023-04-09T12:44:42.283Z,8.09
2023-04-09T12:49:47.187Z,8.05
2023-04-09T12:54:52.705Z,8.02
2023-04-09T12:59:56.451Z,8.02
2023-04-09T13:05:00.658Z,8.05
2023-04-09T13:10:05.024Z,8.07
2023-04-09T13:15:09.287Z,8.08
2023-04-09T13:20:13.225Z,8.08
2023-04-09T13:25:17.123Z,8.08
2023-04-09T13:30:22.926Z,8.16
2023-04-09T13:35:26.665Z,8.23
2023-04-09T13:40:30.440Z,8.26
2023-04-09T13:45:34.505Z,8.23
2023-04-09T13:50:38.372Z,8.24
2023-04-09T13:55:42.260Z,8.26
2023-04-09T14:00:45.984Z,8.25
2023-04-09T14:05:50.102Z,8.20
2023-04-09T14:10:53.818Z,8.19
2023-04-09T14:16:00.331Z,8.18
2023-04-09T14:21:04.550Z,8.18
2023-04-09T14:26:08.838Z,8.21
2023-04-09T14:31:13.514Z,8.24
2023-04-09T14:36:18.078Z,8.27
2023-04-09T14:41:21.994Z,8.32
2023-04-09T14:46:25.782Z,8.35
2023-04-09T14:51:31.065Z,8.39
2023-04-09T14:56:34.755Z,8.42
2023-04-09T15:01:38.566Z,8.46
2023-04-09T15:06:43.437Z,8.48
2023-04-09T15:11:47.882Z,8.47
2023-04-09T15:16:52.130Z,8.48
2023-04-09T15:21:56.722Z,8.45
2023-04-09T15:27:02.177Z,8.36
2023-04-09T15:32:07.796Z,8.28
2023-04-09T15:37:11.534Z,8.24
2023-04-09T15:42:20.551Z,8.23
2023-04-09T15:47:24.168Z,8.22
2023-04-09T15:52:27.983Z,8.20
2023-04-09T15:57:31.666Z,8.24
2023-04-09T16:02:37.196Z,8.22
2023-04-09T16:07:41.296Z,8.19
2023-04-09T16:12:45.031Z,8.11
2023-04-09T16:17:48.726Z,8.05
2023-04-09T16:22:52.565Z,8.01
2023-04-09T16:27:56.425Z,7.99
2023-04-09T16:33:00.309Z,7.96
2023-04-09T16:38:05.323Z,7.94
2023-04-09T16:43:09.086Z,7.93
2023-04-09T16:48:13.843Z,7.93
2023-04-09T16:53:17.808Z,7.92
2023-04-09T16:58:21.573Z,7.91
2023-04-09T17:03:26.743Z,7.90
2023-04-09T17:08:30.924Z,7.89
2023-04-09T17:13:36.562Z,7.88
2023-04-09T17:18:40.351Z,7.86
2023-04-09T17:23:44.619Z,7.83
2023-04-09T17:28:48.366Z,7.81
2023-04-09T17:33:52.351Z,7.79
2023-04-09T17:38:56.898Z,7.77
2023-04-09T17:44:00.646Z,7.76
2023-04-09T17:49:04.755Z,7.75
2023-04-09T17:54:08.496Z,7.73
2023-04-09T17:59:12.484Z,7.71
2023-04-09T18:04:16.836Z,7.70
2023-04-09T18:09:21.032Z,7.70
2023-04-09T18:14:25.262Z,7.69
2023-04-09T18:19:29.015Z,7.69
2023-04-09T18:24:34.219Z,7.66
2023-04-09T18:29:38.009Z,7.64
2023-04-09T18:34:41.816Z,7.62
2023-04-09T18:39:47.303Z,7.61
2023-04-09T18:44:51.293Z,7.59
2023-04-09T18:49:56.354Z,7.57
2023-04-09T18:55:01.870Z,7.55
2023-04-09T19:00:08.257Z,7.54
2023-04-09T19:05:13.321Z,7.53
2023-04-09T19:10:17.788Z,7.53
2023-04-09T19:15:29.318Z,7.53
2023-04-09T19:20:35.431Z,7.53
2023-04-09T19:25:39.572Z,7.51
2023-04-09T19:30:44.887Z,7.51
2023-04-09T19:35:53.064Z,7.50
2023-04-09T19:40:57.231Z,7.50
2023-04-09T19:46:06.884Z,7.49
2023-04-09T19:51:17.894Z,7.48
2023-04-09T19:56:22.162Z,7.46
2023-04-09T20:01:26.203Z,7.45
2023-04-09T20:06:31.205Z,7.45
2023-04-09T20:11:35.727Z,7.45
2023-04-09T20:16:39.420Z,7.44
2023-04-09T20:21:44.090Z,7.44
2023-04-09T20:26:49.017Z,7.42
2023-04-09T20:31:56.170Z,7.41
2023-04-09T20:37:08.729Z,7.41
2023-04-09T20:42:12.574Z,7.39
2023-04-09T20:47:17.251Z,7.35
2023-04-09T20:52:21.077Z,7.31
2023-04-09T20:57:25.348Z,7.26
2023-04-09T21:02:29.469Z,7.17
2023-04-09T21:07:33.372Z,7.09
2023-04-09T21:12:40.888Z,7.01
2023-04-09T21:17:48.342Z,6.93
2023-04-09T21:22:54.900Z,6.87
2023-04-09T21:28:03.790Z,6.88
2023-04-09T21:33:11.617Z,6.87
2023-04-09T21:38:18.444Z,6.84
2023-04-09T21:43:24.124Z,6.77
2023-04-09T21:48:30.959Z,6.73
2023-04-09T21:53:38.662Z,6.70
2023-04-09T21:58:47.396Z,6.68
2023-04-09T22:03:52.453Z,6.63
2023-04-09T22:08:58.215Z,6.59
2023-04-09T22:14:02.491Z,6.62
2023-04-09T22:19:09.062Z,6.66
2023-04-09T22:24:14.627Z,6.69
2023-04-09T22:29:18.396Z,6.71
2023-04-09T22:34:22.351Z,6.72
2023-04-09T22:39:27.050Z,6.71
2023-04-09T22:44:30.982Z,6.66
2023-04-09T22:49:34.774Z,6.57
2023-04-09T22:54:38.888Z,6.42
2023-04-09T22:59:42.645Z,6.26
2023-04-09T23:04:46.494Z,6.17
2023-04-09T23:09:50.353Z,6.04
2023-04-09T23:14:55.063Z,5.97
2023-04-09T23:19:59.946Z,5.92
2023-04-09T23:25:05.353Z,5.88
2023-04-09T23:30:09.853Z,5.91
2023-04-09T23:35:13.910Z,6.01
2023-04-09T23:40:20.290Z,6.05
2023-04-09T23:45:24.047Z,6.09
2023-04-09T23:50:29.060Z,6.10
2023-04-09T23:55:33.777Z,6.11
